createdAt,value
2017-12-23T00:00:11.924Z,44.03
2017-12-23T00:02:38.352Z,49.60
2017-12-23T00:05:04.741Z,45.67
2017-12-23T00:07:31.146Z,41.83
2017-12-23T00:09:57.568Z,45.27
2017-12-23T00:12:24.013Z,42.97
2017-12-23T00:14:50.450Z,44.07
2017-12-23T00:17:16.837Z,44.03
2017-12-23T00:19:43.221Z,43.33
2017-12-23T00:22:09.682Z,45.93
2017-12-23T00:24:36.138Z,43.70
2017-12-23T00:27:03.169Z,41.60
2017-12-23T00:29:29.570Z,43.07
2017-12-23T00:31:55.969Z,42.80
2017-12-23T00:34:30.524Z,47.80
2017-12-23T00:36:56.870Z,45.83
2017-12-23T00:39:23.312Z,46.17
2017-12-23T00:41:49.728Z,45.20
2017-12-23T00:44:16.146Z,49.53
2017-12-23T00:46:42.508Z,50.30
2017-12-23T00:49:09.021Z,45.73
2017-12-23T00:51:35.382Z,45.37
2017-12-23T00:54:01.744Z,41.93
2017-12-23T00:56:28.144Z,41.93
2017-12-23T00:58:54.539Z,44.30
2017-12-23T01:01:21.028Z,43.33
2017-12-23T01:03:47.421Z,42.63
2017-12-23T01:06:13.805Z,47.13
2017-12-23T01:08:40.205Z,46.60
2017-12-23T01:11:06.708Z,47.30
2017-12-23T01:13:33.117Z,40.40
2017-12-23T01:15:59.525Z,41.00
2017-12-23T01:18:25.978Z,41.07
2017-12-23T01:20:52.393Z,39.80
2017-12-23T01:23:18.821Z,40.27
2017-12-23T01:25:45.241Z,44.43
2017-12-23T01:28:11.636Z,44.73
2017-12-23T01:30:38.030Z,43.10
2017-12-23T01:33:04.481Z,42.70
2017-12-23T01:35:30.920Z,46.87
2017-12-23T01:37:57.324Z,44.63
2017-12-23T01:40:23.768Z,44.63
2017-12-23T01:42:50.193Z,46.93
2017-12-23T01:45:16.571Z,44.20
2017-12-23T01:47:43.013Z,44.00
2017-12-23T01:50:09.426Z,40.27
2017-12-23T01:52:35.857Z,43.00
2017-12-23T01:55:02.346Z,42.33
2017-12-23T01:57:28.768Z,37.83
2017-12-23T01:59:55.153Z,41.07
2017-12-23T02:02:21.569Z,42.93
2017-12-23T02:04:47.973Z,36.13
2017-12-23T02:07:14.352Z,36.60
2017-12-23T02:09:40.886Z,32.63
2017-12-23T02:12:07.317Z,33.37
2017-12-23T02:14:33.716Z,31.20
2017-12-23T02:17:00.132Z,33.83
2017-12-23T02:19:26.525Z,28.37
2017-12-23T02:21:52.949Z,27.37
2017-12-23T02:24:19.341Z,28.80
2017-12-23T02:26:45.705Z,27.50
2017-12-23T02:29:12.097Z,24.50
2017-12-23T02:31:38.572Z,27.17
2017-12-23T02:34:05.019Z,21.23
2017-12-23T02:36:31.416Z,23.07
2017-12-23T02:38:57.893Z,24.60
2017-12-23T02:41:24.397Z,21.03
2017-12-23T02:43:50.860Z,23.20
2017-12-23T02:46:17.345Z,23.73
2017-12-23T02:48:43.677Z,25.53
2017-12-23T02:51:10.105Z,27.50
2017-12-23T02:53:36.542Z,26.07
2017-12-23T02:56:02.970Z,21.77
2017-12-23T02:58:29.354Z,24.37
2017-12-23T03:00:55.788Z,26.10
2017-12-23T03:03:22.141Z,24.83
2017-12-23T03:05:48.625Z,23.27
2017-12-23T03:08:15.217Z,29.77
2017-12-23T03:10:41.624Z,25.43
2017-12-23T03:13:08.025Z,24.33
2017-12-23T03:15:34.469Z,24.27
2017-12-23T03:18:00.836Z,24.47
2017-12-23T03:20:27.204Z,24.83
2017-12-23T03:22:53.668Z,25.27
2017-12-23T03:25:20.074Z,25.93
2017-12-23T03:27:46.520Z,25.27
2017-12-23T03:30:12.979Z,22.73
2017-12-23T03:32:39.391Z,24.37
2017-12-23T03:35:05.801Z,22.17
2017-12-23T03:37:32.252Z,23.00
2017-12-23T03:39:58.669Z,23.97
2017-12-23T03:42:25.123Z,21.17
2017-12-23T03:44:51.619Z,23.47
2017-12-23T03:47:17.981Z,23.83
2017-12-23T03:49:44.336Z,21.60
2017-12-23T03:52:10.725Z,22.67
2017-12-23T03:54:37.097Z,21.43
2017-12-23T03:57:03.513Z,21.87
2017-12-23T03:59:29.905Z,20.57
2017-12-23T04:01:56.305Z,22.17
2017-12-23T04:04:22.686Z,21.43
2017-12-23T04:06:49.101Z,18.13
2017-12-23T04:09:15.453Z,27.20
2017-12-23T04:11:41.903Z,18.47
2017-12-23T04:14:08.425Z,20.60
2017-12-23T04:16:34.856Z,19.47
2017-12-23T04:19:01.329Z,19.60
2017-12-23T04:21:27.766Z,20.20
2017-12-23T04:23:54.141Z,21.43
2017-12-23T04:26:20.573Z,18.43
2017-12-23T04:28:47.017Z,16.10
2017-12-23T04:31:13.391Z,19.70
2017-12-23T04:33:39.811Z,18.83
2017-12-23T04:36:06.305Z,17.27
2017-12-23T04:38:32.692Z,15.00
2017-12-23T04:40:59.116Z,15.33
2017-12-23T04:43:25.501Z,17.47
2017-12-23T04:45:51.908Z,16.20
2017-12-23T04:48:18.308Z,15.47
2017-12-23T04:50:44.716Z,13.23
2017-12-23T04:53:11.140Z,16.27
2017-12-23T04:55:37.541Z,14.93
2017-12-23T04:58:04.034Z,13.03
2017-12-23T05:00:30.425Z,13.20
2017-12-23T05:02:56.857Z,13.13
2017-12-23T05:05:23.260Z,11.87
2017-12-23T05:07:49.634Z,13.60
2017-12-23T05:10:15.997Z,13.67
2017-12-23T05:12:42.456Z,15.03
2017-12-23T05:15:08.876Z,11.83
2017-12-23T05:17:35.269Z,12.80
2017-12-23T05:20:01.729Z,10.30
2017-12-23T05:22:28.125Z,11.97
2017-12-23T05:24:54.485Z,14.10
2017-12-23T05:27:20.970Z,12.10
2017-12-23T05:29:47.313Z,14.53
2017-12-23T05:32:13.688Z,15.97
2017-12-23T05:34:40.078Z,12.77
2017-12-23T05:37:07.001Z,15.13
2017-12-23T05:39:33.377Z,14.67
2017-12-23T05:41:59.793Z,14.00
2017-12-23T05:44:26.228Z,15.13
2017-12-23T05:46:52.596Z,15.87
2017-12-23T05:49:19.010Z,15.90
2017-12-23T05:51:45.357Z,15.80
2017-12-23T05:54:11.714Z,15.30
2017-12-23T05:56:38.205Z,13.77
2017-12-23T05:59:04.579Z,14.37
2017-12-23T06:01:30.963Z,16.57
2017-12-23T06:03:57.472Z,15.50
2017-12-23T06:06:23.901Z,15.27
2017-12-23T06:08:50.384Z,15.47
2017-12-23T06:11:16.931Z,15.77
2017-12-23T06:13:43.364Z,16.83
2017-12-23T06:16:09.738Z,18.17
2017-12-23T06:18:36.143Z,16.13
2017-12-23T06:21:02.557Z,20.00
2017-12-23T06:23:28.921Z,14.33
2017-12-23T06:25:55.326Z,14.90
2017-12-23T06:28:21.837Z,16.57
2017-12-23T06:30:48.229Z,17.20
2017-12-23T06:33:14.702Z,19.33
2017-12-23T06:35:41.109Z,17.33
2017-12-23T06:38:07.517Z,18.60
2017-12-23T06:40:34.013Z,19.73
2017-12-23T06:43:00.379Z,18.27
2017-12-23T06:45:26.777Z,20.03
2017-12-23T06:47:53.217Z,18.83
2017-12-23T06:50:19.617Z,16.30
2017-12-23T06:52:46.005Z,18.27
2017-12-23T06:55:12.462Z,15.97
2017-12-23T06:57:38.853Z,18.57
2017-12-23T07:00:05.201Z,17.13
2017-12-23T07:02:31.669Z,16.53
2017-12-23T07:04:58.121Z,22.43
2017-12-23T07:07:24.485Z,23.93
2017-12-23T07:09:50.977Z,20.77
2017-12-23T07:12:17.466Z,25.27
2017-12-23T07:14:43.837Z,24.40
2017-12-23T07:17:10.242Z,21.90
2017-12-23T07:19:36.593Z,22.00
2017-12-23T07:22:02.974Z,20.73
2017-12-23T07:24:29.393Z,22.80
2017-12-23T07:26:55.740Z,22.53
2017-12-23T07:29:22.096Z,22.63
2017-12-23T07:31:48.522Z,25.40
2017-12-23T07:34:14.894Z,28.27
2017-12-23T07:36:41.269Z,30.90
2017-12-23T07:39:07.781Z,28.20
2017-12-23T07:41:34.199Z,30.20
2017-12-23T07:44:00.596Z,33.03
2017-12-23T07:46:27.065Z,26.07
2017-12-23T07:48:53.481Z,29.10
2017-12-23T07:51:19.892Z,26.93
2017-12-23T07:53:46.289Z,23.77
2017-12-23T07:56:12.664Z,22.60
2017-12-23T07:58:39.049Z,19.30
2017-12-23T08:01:05.504Z,17.30
2017-12-23T08:03:31.879Z,19.67
2017-12-23T08:05:58.368Z,21.33
2017-12-23T08:08:24.881Z,22.10
2017-12-23T08:10:51.313Z,23.17
2017-12-23T08:13:17.744Z,23.03
2017-12-23T08:15:44.177Z,23.27
2017-12-23T08:18:10.570Z,23.20
2017-12-23T08:20:36.994Z,25.50
2017-12-23T08:23:03.424Z,23.70
2017-12-23T08:25:29.793Z,21.90
2017-12-23T08:27:56.198Z,27.87
2017-12-23T08:30:22.601Z,21.23
2017-12-23T08:32:48.981Z,23.17
2017-12-23T08:35:15.406Z,21.30
2017-12-23T08:37:41.923Z,22.47
2017-12-23T08:40:08.306Z,19.27
2017-12-23T08:42:34.825Z,21.40
2017-12-23T08:45:01.221Z,19.87
2017-12-23T08:47:27.609Z,21.10
2017-12-23T08:49:53.989Z,30.23
2017-12-23T08:52:20.389Z,22.23
2017-12-23T08:54:46.752Z,19.27
2017-12-23T08:57:14.953Z,19.37
2017-12-23T08:59:41.436Z,21.97
2017-12-23T09:02:07.814Z,31.87
2017-12-23T09:04:34.209Z,26.90
2017-12-23T09:07:00.664Z,28.43
2017-12-23T09:09:27.060Z,29.07
2017-12-23T09:11:53.494Z,26.20
2017-12-23T09:14:19.886Z,25.97
2017-12-23T09:16:46.333Z,20.03
2017-12-23T09:19:12.735Z,25.47
2017-12-23T09:21:39.156Z,26.00
2017-12-23T09:24:05.510Z,21.33
2017-12-23T09:26:31.931Z,18.17
2017-12-23T09:28:58.381Z,18.63
2017-12-23T09:31:24.782Z,18.57
2017-12-23T09:33:51.113Z,21.47
2017-12-23T09:36:17.526Z,18.27
2017-12-23T09:38:43.891Z,20.50
2017-12-23T09:41:10.270Z,16.40
2017-12-23T09:43:36.770Z,24.03
2017-12-23T09:46:03.108Z,20.53
2017-12-23T09:48:29.525Z,20.83
2017-12-23T09:50:55.966Z,19.97
2017-12-23T09:53:22.349Z,18.63
2017-12-23T09:55:48.737Z,21.23
2017-12-23T09:58:15.152Z,19.50
2017-12-23T10:00:41.525Z,20.80
2017-12-23T10:03:07.967Z,18.80
2017-12-23T10:05:34.421Z,19.00
2017-12-23T10:08:00.889Z,19.27
2017-12-23T10:10:27.301Z,22.13
2017-12-23T10:12:53.709Z,18.23
2017-12-23T10:15:20.153Z,22.47
2017-12-23T10:17:46.837Z,16.90
2017-12-23T10:20:13.282Z,19.93
2017-12-23T10:22:39.662Z,18.47
2017-12-23T10:25:06.066Z,19.37
2017-12-23T10:27:32.557Z,16.83
2017-12-23T10:29:58.966Z,16.90
2017-12-23T10:32:25.337Z,19.30
2017-12-23T10:34:51.745Z,17.03
2017-12-23T10:37:18.144Z,19.47
2017-12-23T10:39:44.507Z,17.93
2017-12-23T10:42:10.893Z,19.20
2017-12-23T10:44:37.321Z,17.00
2017-12-23T10:47:03.692Z,17.67
2017-12-23T10:49:30.149Z,18.50
2017-12-23T10:51:56.497Z,17.20
2017-12-23T10:54:22.937Z,18.40
2017-12-23T10:56:49.388Z,18.50
2017-12-23T10:59:15.749Z,16.60
2017-12-23T11:01:42.150Z,20.00
2017-12-23T11:04:08.649Z,23.10
2017-12-23T11:06:35.115Z,23.13
2017-12-23T11:09:01.513Z,26.27
2017-12-23T11:11:27.974Z,27.70
2017-12-23T11:13:54.375Z,28.37
2017-12-23T11:16:20.757Z,30.90
2017-12-23T11:18:47.175Z,37.37
2017-12-23T11:21:13.566Z,36.07
2017-12-23T11:23:39.949Z,33.27
2017-12-23T11:26:06.413Z,37.37
2017-12-23T11:28:32.866Z,31.47
2017-12-23T11:30:59.230Z,25.50
2017-12-23T11:33:25.815Z,27.30
2017-12-23T11:35:52.375Z,30.10
2017-12-23T11:38:18.825Z,27.77
2017-12-23T11:40:45.315Z,27.37
2017-12-23T11:43:11.725Z,21.07
2017-12-23T11:45:38.147Z,24.73
2017-12-23T11:48:04.618Z,25.70
2017-12-23T11:50:30.981Z,27.47
2017-12-23T11:52:57.426Z,23.93
2017-12-23T11:55:23.893Z,29.90
2017-12-23T11:57:50.268Z,31.00
2017-12-23T12:00:16.683Z,29.73
2017-12-23T12:02:44.142Z,32.20
2017-12-23T12:05:10.566Z,33.97
2017-12-23T12:07:37.013Z,34.83
2017-12-23T12:10:03.442Z,30.87
2017-12-23T12:12:29.830Z,29.23
2017-12-23T12:14:56.346Z,31.73
2017-12-23T12:46:39.534Z,35.28
2017-12-23T12:49:06.015Z,31.07
2017-12-23T12:51:32.467Z,25.67
2017-12-23T12:53:58.905Z,27.40
2017-12-23T12:56:25.324Z,28.10
2017-12-23T12:58:51.729Z,29.03
2017-12-23T13:01:18.189Z,25.10
2017-12-23T13:03:44.626Z,23.63
2017-12-23T13:06:11.029Z,25.50
2017-12-23T13:08:37.484Z,29.33
2017-12-23T13:11:03.926Z,31.23
2017-12-23T13:13:30.347Z,27.23
2017-12-23T13:15:56.777Z,25.20
2017-12-23T13:18:23.198Z,22.50
2017-12-23T13:20:50.230Z,21.60
2017-12-23T13:23:16.644Z,21.47
2017-12-23T13:25:43.033Z,20.87
2017-12-23T13:28:09.442Z,21.40
2017-12-23T13:30:35.885Z,22.83
2017-12-23T13:33:02.329Z,26.07
2017-12-23T13:35:28.774Z,24.73
2017-12-23T13:37:55.266Z,34.80
2017-12-23T13:40:21.680Z,27.47
2017-12-23T13:42:48.105Z,20.10
2017-12-23T13:45:14.531Z,24.40
2017-12-23T13:47:40.942Z,19.27
2017-12-23T13:50:07.403Z,21.37
2017-12-23T13:52:33.826Z,20.60
2017-12-23T13:55:00.216Z,19.83
2017-12-23T13:57:26.666Z,18.90
2017-12-23T13:59:53.121Z,23.73
2017-12-23T14:02:19.567Z,23.07
2017-12-23T14:04:45.999Z,19.23
2017-12-23T14:07:12.430Z,22.07
2017-12-23T14:09:38.816Z,21.23
2017-12-23T14:12:05.852Z,20.40
2017-12-23T14:14:32.471Z,17.50
2017-12-23T14:16:58.848Z,19.23
2017-12-23T14:19:25.314Z,21.90
